Time;durP1;ratioP1;P1;durP2;ratioP2;P2;SDS_P1;SDS_P2;PMS_P1;PMS_P2;Temp;Humidity;BMP_temperature;BMP_pressure;BME280_temperature;BME280_humidity;BME280_pressure;Samples;Min_cycle;Max_cycle;Signal;HPM_P1;HPM_P2
2022/12/23 00:00:32;;;;;;;30.53;16.80;;;6.40;99.90;;;;;;5270021;28;20231;-51
2022/12/23 00:03:02;;;;;;;31.10;17.73;;;6.50;99.90;;;;;;5259101;28;20191;-52
2022/12/23 00:05:38;;;;;;;28.97;15.67;;;6.50;99.90;;;;;;5267577;28;20186;-51
2022/12/23 00:08:08;;;;;;;35.20;17.90;;;6.40;99.90;;;;;;5257727;28;20555;-52
2022/12/23 00:10:39;;;;;;;29.43;17.10;;;6.30;99.90;;;;;;5268552;28;20439;-53
2022/12/23 00:16:11;;;;;;;34.50;17.07;;;6.30;99.90;;;;;;5270172;28;20458;-53
2022/12/23 00:18:43;;;;;;;31.90;16.73;;;6.50;99.90;;;;;;5257495;28;20455;-53
2022/12/23 00:21:16;;;;;;;28.27;16.33;;;6.50;99.90;;;;;;5260655;28;20448;-52
2022/12/23 00:23:49;;;;;;;33.60;18.53;;;6.40;99.90;;;;;;5249869;28;20427;-52
2022/12/23 00:26:22;;;;;;;30.30;17.17;;;6.30;99.90;;;;;;5266787;28;20819;-53
2022/12/23 00:28:57;;;;;;;35.97;17.20;;;6.40;99.90;;;;;;5250761;28;20504;-51
2022/12/23 00:31:28;;;;;;;35.53;16.87;;;6.40;99.90;;;;;;5267504;28;20533;-53
2022/12/23 00:33:58;;;;;;;32.70;17.70;;;6.30;99.90;;;;;;5276504;28;20521;-53
2022/12/23 00:36:29;;;;;;;36.23;18.83;;;6.20;99.90;;;;;;5262692;28;20184;-53
2022/12/23 00:44:38;;;;;;;31.00;15.53;;;6.20;99.90;;;;;;5257522;28;20764;-52
2022/12/23 00:49:40;;;;;;;31.23;18.00;;;6.10;99.90;;;;;;5276130;28;20447;-53
2022/12/23 00:49:59;;;;;;;40.77;17.70;;;6.10;99.90;;;;;;5253930;28;20239;-53
2022/12/23 00:52:30;;;;;;;32.50;18.43;;;6.10;99.90;;;;;;5256992;28;20432;-52
2022/12/23 00:55:01;;;;;;;37.70;18.70;;;6.10;99.90;;;;;;5254083;28;20216;-52
2022/12/23 00:57:31;;;;;;;37.27;16.30;;;6.10;99.90;;;;;;5249431;28;20492;-53
2022/12/23 01:00:03;;;;;;;34.57;16.67;;;6.10;99.90;;;;;;5251886;28;20524;-53
2022/12/23 01:05:35;;;;;;;30.57;15.30;;;6.10;99.90;;;;;;5248593;28;20419;-52
2022/12/23 01:08:11;;;;;;;26.07;14.83;;;6.10;99.90;;;;;;5261241;28;20809;-52
2022/12/23 01:10:41;;;;;;;37.83;15.60;;;6.10;99.90;;;;;;5257116;28;20939;-52
2022/12/23 01:13:12;;;;;;;28.17;14.70;;;6.10;99.90;;;;;;5257242;28;20431;-51
2022/12/23 01:15:43;;;;;;;30.50;16.83;;;6.10;99.90;;;;;;5260339;28;20228;-52
2022/12/23 01:18:13;;;;;;;44.73;18.53;;;6.10;99.90;;;;;;5258326;28;20197;-51
2022/12/23 01:20:44;;;;;;;31.20;15.70;;;6.00;99.90;;;;;;5282744;28;20181;-51
2022/12/23 01:23:15;;;;;;;31.83;16.93;;;6.00;99.90;;;;;;5264262;28;20182;-53
2022/12/23 01:25:47;;;;;;;31.93;16.03;;;6.10;99.90;;;;;;5254206;28;20209;-51
2022/12/23 01:28:17;;;;;;;30.77;16.70;;;6.10;99.90;;;;;;5261790;28;20520;-51
2022/12/23 01:30:48;;;;;;;36.63;17.40;;;6.30;99.90;;;;;;5264333;28;20427;-53
2022/12/23 01:33:19;;;;;;;29.30;15.70;;;6.30;99.90;;;;;;5264166;28;20186;-51
2022/12/23 01:35:50;;;;;;;34.53;19.13;;;6.30;99.90;;;;;;5260785;28;20181;-52
2022/12/23 01:38:20;;;;;;;34.00;15.67;;;6.40;99.90;;;;;;5271223;28;20217;-51
2022/12/23 01:40:51;;;;;;;40.03;19.93;;;6.30;99.90;;;;;;5272003;28;20329;-52
2022/12/23 01:43:23;;;;;;;34.37;18.00;;;6.30;99.90;;;;;;5271745;28;20208;-52
2022/12/23 01:45:54;;;;;;;29.90;16.67;;;6.20;99.90;;;;;;5273798;28;20549;-52
2022/12/23 01:48:26;;;;;;;34.40;17.97;;;6.10;99.90;;;;;;5258787;28;20464;-52
2022/12/23 01:51:07;;;;;;;28.83;16.70;;;6.20;99.90;;;;;;5263918;28;20641;-51
2022/12/23 01:53:48;;;;;;;31.13;17.17;;;6.10;99.90;;;;;;5258911;28;20532;-52
2022/12/23 01:56:33;;;;;;;39.47;19.00;;;6.10;99.90;;;;;;5274491;28;20938;-53
2022/12/23 02:05:01;;;;;;;28.63;17.10;;;6.10;99.90;;;;;;5260780;28;20507;-49
2022/12/23 02:10:33;;;;;;;38.67;20.70;;;6.00;99.90;;;;;;5264196;28;20423;-49
2022/12/23 02:13:14;;;;;;;38.33;20.53;;;6.10;99.90;;;;;;5266142;28;20439;-51
2022/12/23 02:19:00;;;;;;;41.80;21.40;;;6.10;99.90;;;;;;5255993;28;20590;-51
2022/12/23 02:22:12;;;;;;;47.63;20.33;;;6.10;99.90;;;;;;5265977;28;20428;-49
2022/12/23 02:25:07;;;;;;;46.97;21.70;;;6.10;99.90;;;;;;5270038;28;20477;-50
2022/12/23 02:28:24;;;;;;;38.37;20.87;;;6.10;99.90;;;;;;5270345;28;20456;-50
2022/12/23 02:30:59;;;;;;;41.70;20.17;;;6.00;99.90;;;;;;5238799;28;20924;-48
2022/12/23 02:34:13;;;;;;;37.83;20.20;;;6.10;99.90;;;;;;5303595;27;20780;-48
2022/12/23 02:36:48;;;;;;;38.27;19.73;;;6.00;99.90;;;;;;5252237;28;20459;-49
2022/12/23 02:39:43;;;;;;;48.60;20.03;;;6.10;99.90;;;;;;5257241;28;20422;-51
2022/12/23 02:42:24;;;;;;;44.03;20.63;;;6.00;99.90;;;;;;5256529;28;20439;-50
2022/12/23 02:45:10;;;;;;;42.50;21.60;;;6.10;99.90;;;;;;5260282;28;20407;-51
2022/12/23 02:47:48;;;;;;;42.73;20.90;;;6.10;99.90;;;;;;5250424;28;20539;-49
2022/12/23 02:50:27;;;;;;;42.40;21.20;;;6.10;99.90;;;;;;5267239;28;20487;-49
2022/12/23 02:53:02;;;;;;;45.80;21.63;;;6.10;99.90;;;;;;5269804;28;20494;-50
2022/12/23 02:55:37;;;;;;;40.63;20.70;;;6.10;99.90;;;;;;5272266;28;20494;-48
2022/12/23 02:58:12;;;;;;;47.47;21.93;;;6.00;99.90;;;;;;5259935;28;20471;-48
2022/12/23 03:00:44;;;;;;;43.00;21.07;;;6.10;99.90;;;;;;5268634;28;20430;-49
2022/12/23 03:03:19;;;;;;;46.63;22.50;;;6.10;99.90;;;;;;5255161;28;20420;-50
2022/12/23 03:05:51;;;;;;;45.97;22.80;;;6.20;99.90;;;;;;5272824;28;20421;-49
2022/12/23 03:08:27;;;;;;;49.67;23.80;;;6.20;99.90;;;;;;5260780;28;20474;-51
2022/12/23 03:11:04;;;;;;;46.50;21.73;;;6.20;99.90;;;;;;5272536;28;20431;-49
2022/12/23 03:14:11;;;;;;;47.53;21.77;;;6.20;99.90;;;;;;5271699;28;20439;-49
2022/12/23 03:16:54;;;;;;;52.97;22.93;;;6.10;99.90;;;;;;5263584;28;20787;-50
2022/12/23 03:19:48;;;;;;;47.80;23.80;;;6.20;99.90;;;;;;5262907;28;20471;-50
2022/12/23 03:22:36;;;;;;;47.03;24.30;;;6.10;99.90;;;;;;5249046;28;20436;-50
2022/12/23 03:25:30;;;;;;;48.00;22.30;;;6.20;99.90;;;;;;5251981;28;20435;-52
2022/12/23 03:28:38;;;;;;;46.60;22.97;;;6.20;99.90;;;;;;5263979;28;20522;-50
2022/12/23 03:31:13;;;;;;;58.07;23.93;;;6.20;99.90;;;;;;5250790;28;20520;-49
2022/12/23 03:33:50;;;;;;;44.60;21.70;;;6.10;99.90;;;;;;5268839;28;20427;-50
2022/12/23 03:36:24;;;;;;;53.33;23.90;;;6.20;99.90;;;;;;5256837;28;20784;-50
2022/12/23 03:38:56;;;;;;;49.33;23.70;;;6.20;99.90;;;;;;5271660;28;20500;-50
2022/12/23 03:41:33;;;;;;;51.90;24.63;;;6.20;99.90;;;;;;5257823;28;20797;-49
2022/12/23 03:44:34;;;;;;;48.73;22.53;;;6.20;99.90;;;;;;5266722;28;20788;-49
2022/12/23 03:47:17;;;;;;;45.90;22.13;;;6.30;99.90;;;;;;5248572;28;20475;-50
2022/12/23 03:50:04;;;;;;;61.13;24.43;;;6.20;99.90;;;;;;5254470;28;20435;-51
2022/12/23 03:52:44;;;;;;;53.53;23.70;;;6.20;99.90;;;;;;5252516;28;20474;-50
2022/12/23 03:55:22;;;;;;;48.80;22.37;;;6.20;99.90;;;;;;5258735;28;20464;-49
2022/12/23 03:58:02;;;;;;;41.50;21.97;;;6.20;99.90;;;;;;5255407;28;20471;-50
2022/12/23 04:00:37;;;;;;;42.23;20.00;;;6.20;99.90;;;;;;5268936;28;20873;-50
2022/12/23 04:03:25;;;;;;;36.60;20.27;;;6.30;99.90;;;;;;5268150;28;20443;-49
2022/12/23 04:05:58;;;;;;;39.33;19.97;;;6.20;99.90;;;;;;5251445;28;20422;-51
2022/12/23 04:08:31;;;;;;;40.00;19.83;;;6.30;99.90;;;;;;5269505;28;20471;-49
2022/12/23 04:11:02;;;;;;;38.13;20.03;;;6.20;99.90;;;;;;5255980;28;20538;-51
2022/12/23 04:13:33;;;;;;;47.50;22.87;;;6.20;99.90;;;;;;5259940;28;20853;-49
2022/12/23 04:16:04;;;;;;;51.77;22.57;;;6.30;99.90;;;;;;5268850;28;20530;-49
2022/12/23 04:18:35;;;;;;;43.53;21.60;;;6.30;99.90;;;;;;5269230;28;20197;-49
2022/12/23 04:21:06;;;;;;;54.87;23.17;;;6.30;99.90;;;;;;5270106;28;20427;-50
2022/12/23 04:23:36;;;;;;;52.33;22.50;;;6.30;99.90;;;;;;5251711;28;20237;-50
2022/12/23 04:26:07;;;;;;;48.03;23.40;;;6.30;99.90;;;;;;5252439;28;20661;-51
2022/12/23 04:28:38;;;;;;;47.97;23.60;;;6.20;99.90;;;;;;5273667;28;20618;-50
2022/12/23 04:31:08;;;;;;;44.73;21.67;;;6.30;99.90;;;;;;5264684;28;20191;-50
2022/12/23 04:33:39;;;;;;;46.63;22.07;;;6.20;99.90;;;;;;5262894;28;20200;-51
2022/12/23 04:36:10;;;;;;;52.40;22.57;;;6.30;99.90;;;;;;5263492;28;20208;-50
2022/12/23 04:38:41;;;;;;;49.50;22.50;;;6.30;99.90;;;;;;5262834;28;20618;-51
2022/12/23 04:41:11;;;;;;;52.50;24.20;;;6.30;99.90;;;;;;5265469;28;20500;-50
2022/12/23 04:43:42;;;;;;;53.40;23.60;;;6.30;99.90;;;;;;5249862;28;20178;-51
2022/12/23 04:46:13;;;;;;;53.77;24.43;;;6.30;99.90;;;;;;5266353;28;20200;-51
2022/12/23 04:48:43;;;;;;;51.90;24.13;;;6.30;99.90;;;;;;5260854;28;20196;-51
2022/12/23 04:51:14;;;;;;;53.70;24.13;;;6.30;99.90;;;;;;5262584;28;20212;-53
2022/12/23 04:53:45;;;;;;;74.13;27.67;;;6.30;99.90;;;;;;5262620;28;20581;-51
2022/12/23 04:56:15;;;;;;;58.10;25.90;;;6.30;99.90;;;;;;5258649;28;20178;-49
2022/12/23 04:58:46;;;;;;;77.90;26.70;;;6.30;99.90;;;;;;5257564;28;20221;-49
2022/12/23 05:01:17;;;;;;;72.90;29.47;;;6.30;99.90;;;;;;5247673;28;20197;-51
2022/12/23 05:03:48;;;;;;;77.70;27.93;;;6.30;99.90;;;;;;5266998;28;20208;-49
2022/12/23 05:06:18;;;;;;;73.60;26.80;;;6.30;99.90;;;;;;5261814;28;20269;-50
2022/12/23 05:08:49;;;;;;;82.03;29.00;;;6.20;99.90;;;;;;5275609;28;20228;-51
2022/12/23 05:11:20;;;;;;;85.50;30.87;;;6.30;99.90;;;;;;5262527;28;20185;-51
2022/12/23 05:13:51;;;;;;;90.63;32.03;;;6.30;99.90;;;;;;5262490;28;20657;-50
2022/12/23 05:16:22;;;;;;;63.93;24.67;;;6.30;99.90;;;;;;5264572;28;20201;-52
2022/12/23 05:18:52;;;;;;;64.00;25.77;;;6.30;99.90;;;;;;5256649;28;20330;-52
2022/12/23 05:21:23;;;;;;;78.50;30.03;;;6.30;99.90;;;;;;5266726;28;20502;-50
2022/12/23 05:23:54;;;;;;;52.10;21.90;;;6.30;99.90;;;;;;5262294;28;20236;-50
2022/12/23 05:26:25;;;;;;;67.53;27.57;;;6.30;99.90;;;;;;5269282;28;20667;-49
2022/12/23 05:28:56;;;;;;;91.60;31.47;;;6.30;99.90;;;;;;5261121;28;21004;-48
2022/12/23 05:31:27;;;;;;;69.33;24.30;;;6.30;99.90;;;;;;5261460;28;20177;-51
2022/12/23 05:33:57;;;;;;;62.57;25.00;;;6.30;99.90;;;;;;5260851;28;20175;-52
2022/12/23 05:36:28;;;;;;;95.40;32.17;;;6.40;99.90;;;;;;5252314;28;20546;-51
2022/12/23 05:38:59;;;;;;;99.60;32.10;;;6.30;99.90;;;;;;5264411;28;20699;-52
2022/12/23 05:41:29;;;;;;;75.97;27.00;;;6.30;99.90;;;;;;5267073;28;20189;-52
2022/12/23 05:44:00;;;;;;;75.97;26.97;;;6.40;99.90;;;;;;5257941;28;20196;-53
2022/12/23 05:46:31;;;;;;;86.90;27.17;;;6.50;99.90;;;;;;5263587;28;20186;-51
2022/12/23 05:49:02;;;;;;;72.13;25.20;;;6.40;99.90;;;;;;5259503;28;20637;-52
2022/12/23 05:51:32;;;;;;;78.90;27.77;;;6.40;99.90;;;;;;5262072;28;20265;-53
2022/12/23 05:54:03;;;;;;;79.90;27.13;;;6.40;99.90;;;;;;5258448;28;20178;-52
2022/12/23 05:56:34;;;;;;;76.50;27.63;;;6.40;99.90;;;;;;5261140;28;20190;-53
2022/12/23 05:59:04;;;;;;;79.83;29.33;;;6.40;99.90;;;;;;5259369;28;20622;-52
2022/12/23 06:01:35;;;;;;;101.27;34.47;;;6.40;99.90;;;;;;5250126;28;20186;-51
2022/12/23 06:04:06;;;;;;;96.33;30.50;;;6.40;99.90;;;;;;5259418;28;20190;-52
2022/12/23 06:06:37;;;;;;;116.43;34.70;;;6.40;99.90;;;;;;5263395;28;20186;-52
2022/12/23 06:09:09;;;;;;;113.83;34.63;;;6.40;99.90;;;;;;5268040;28;20209;-52
2022/12/23 06:11:39;;;;;;;121.47;34.33;;;6.50;99.90;;;;;;5264288;28;20835;-52
2022/12/23 06:14:10;;;;;;;123.90;36.20;;;6.40;99.90;;;;;;5260318;28;20472;-52
2022/12/23 06:16:41;;;;;;;141.57;38.30;;;6.40;99.90;;;;;;5260537;28;20616;-53
2022/12/23 06:19:12;;;;;;;113.17;32.70;;;6.40;99.90;;;;;;5268333;28;20544;-52
2022/12/23 06:21:42;;;;;;;83.73;26.73;;;6.40;99.90;;;;;;5271691;28;20190;-53
2022/12/23 06:24:13;;;;;;;66.77;25.30;;;6.40;99.90;;;;;;5262101;28;20181;-52
2022/12/23 06:26:44;;;;;;;81.03;27.80;;;6.50;99.90;;;;;;5270045;28;20193;-52
2022/12/23 06:29:14;;;;;;;64.37;23.13;;;6.50;99.90;;;;;;5267035;28;20582;-52
2022/12/23 06:31:45;;;;;;;88.37;30.97;;;6.60;99.90;;;;;;5263771;28;20621;-52
2022/12/23 06:34:16;;;;;;;68.13;27.67;;;6.60;99.90;;;;;;5258687;28;20186;-52
2022/12/23 06:36:46;;;;;;;62.23;23.10;;;6.70;99.90;;;;;;5261487;28;20193;-51
2022/12/23 06:39:17;;;;;;;61.17;25.33;;;6.60;99.90;;;;;;5270611;28;20621;-52
2022/12/23 06:41:48;;;;;;;52.33;21.83;;;6.70;99.90;;;;;;5270065;28;20190;-50
2022/12/23 06:44:18;;;;;;;67.33;26.70;;;6.70;99.90;;;;;;5269922;28;20649;-52
2022/12/23 06:46:49;;;;;;;47.87;21.13;;;6.70;99.90;;;;;;5265351;28;20436;-53
2022/12/23 06:49:20;;;;;;;51.17;22.17;;;6.70;99.90;;;;;;5254667;28;20607;-53
2022/12/23 06:51:50;;;;;;;51.50;21.50;;;6.70;99.90;;;;;;5269306;28;20260;-52
2022/12/23 06:54:21;;;;;;;44.77;21.27;;;6.80;99.90;;;;;;5268717;28;20205;-52
2022/12/23 06:56:52;;;;;;;44.60;18.90;;;6.80;99.90;;;;;;5262785;28;20670;-51
2022/12/23 06:59:22;;;;;;;49.57;20.97;;;6.80;99.90;;;;;;5260775;28;20206;-52
2022/12/23 07:01:53;;;;;;;41.43;18.23;;;6.80;99.90;;;;;;5269530;28;20268;-52
2022/12/23 07:04:24;;;;;;;42.70;19.90;;;6.80;99.90;;;;;;5265353;28;20529;-52
2022/12/23 07:06:55;;;;;;;65.03;24.00;;;6.90;99.90;;;;;;5269441;28;20593;-52
2022/12/23 07:09:25;;;;;;;43.40;18.17;;;6.90;99.90;;;;;;5270159;28;20748;-53
2022/12/23 07:11:56;;;;;;;43.60;19.07;;;6.90;99.90;;;;;;5269384;28;20178;-52
2022/12/23 07:14:26;;;;;;;45.83;21.10;;;6.90;99.90;;;;;;5259806;28;20253;-52
2022/12/23 07:16:57;;;;;;;48.13;20.03;;;6.90;99.90;;;;;;5261442;28;20269;-53
2022/12/23 07:19:28;;;;;;;64.97;24.37;;;6.90;99.90;;;;;;5269191;28;20200;-52
2022/12/23 07:21:58;;;;;;;39.67;19.87;;;7.00;99.90;;;;;;5264093;28;20178;-52
2022/12/23 07:24:29;;;;;;;34.40;16.67;;;7.00;99.90;;;;;;5269344;28;20185;-51
2022/12/23 07:27:00;;;;;;;32.83;17.30;;;7.00;99.90;;;;;;5267271;28;20265;-52
2022/12/23 07:29:30;;;;;;;43.07;18.90;;;7.00;99.90;;;;;;5261205;28;20217;-53
2022/12/23 07:32:02;;;;;;;44.87;18.33;;;7.00;99.90;;;;;;5259264;28;20256;-53
2022/12/23 07:34:32;;;;;;;37.97;15.40;;;7.00;99.90;;;;;;5266455;28;20988;-52
2022/12/23 07:37:03;;;;;;;27.73;14.37;;;7.00;99.90;;;;;;5257071;28;20451;-52
2022/12/23 07:39:35;;;;;;;72.73;24.40;;;7.00;99.90;;;;;;5271373;28;20209;-51
2022/12/23 07:42:06;;;;;;;67.37;22.17;;;7.00;99.90;;;;;;5266466;28;20193;-53
2022/12/23 07:44:37;;;;;;;64.00;20.67;;;7.00;99.90;;;;;;5268368;28;20446;-52
2022/12/23 07:47:07;;;;;;;44.37;16.17;;;6.90;99.90;;;;;;5267512;28;20208;-52
2022/12/23 07:49:38;;;;;;;76.83;21.17;;;7.00;99.90;;;;;;5262776;28;20189;-51
2022/12/23 07:52:09;;;;;;;53.83;18.70;;;7.00;99.90;;;;;;5265193;28;20181;-53
2022/12/23 07:54:39;;;;;;;37.23;15.80;;;7.00;99.90;;;;;;5268511;28;20192;-52
2022/12/23 07:57:11;;;;;;;94.30;23.83;;;7.00;99.90;;;;;;5269027;28;20201;-54
2022/12/23 07:59:42;;;;;;;62.40;20.97;;;7.00;99.90;;;;;;5268113;28;20204;-54
2022/12/23 08:02:12;;;;;;;78.77;22.07;;;7.00;99.90;;;;;;5269863;28;20435;-54
2022/12/23 08:04:43;;;;;;;72.57;20.50;;;6.90;99.90;;;;;;5257207;28;20182;-52
2022/12/23 08:07:14;;;;;;;55.50;19.03;;;6.90;99.90;;;;;;5262382;28;20205;-54
2022/12/23 08:09:44;;;;;;;55.33;20.13;;;6.90;99.90;;;;;;5249023;28;20182;-54
2022/12/23 08:12:15;;;;;;;56.60;18.20;;;6.90;99.90;;;;;;5269341;28;20196;-54
2022/12/23 08:14:47;;;;;;;46.07;18.30;;;7.00;99.90;;;;;;5268408;28;20181;-55
2022/12/23 08:17:24;;;;;;;52.37;19.90;;;7.00;99.90;;;;;;5270436;28;20223;-53
2022/12/23 08:19:55;;;;;;;56.93;19.83;;;7.00;99.90;;;;;;5263056;28;20419;-57
2022/12/23 08:22:26;;;;;;;52.23;17.07;;;7.00;99.90;;;;;;5247243;28;20428;-53
2022/12/23 08:24:58;;;;;;;77.83;22.87;;;7.00;99.90;;;;;;5268199;28;20797;-54
2022/12/23 08:27:29;;;;;;;46.13;16.37;;;7.00;99.90;;;;;;5256680;28;20276;-54
2022/12/23 08:29:59;;;;;;;50.87;18.53;;;7.00;99.90;;;;;;5255263;28;20424;-54
2022/12/23 08:32:30;;;;;;;47.43;16.37;;;7.10;99.90;;;;;;5254813;28;20182;-55
2022/12/23 08:35:01;;;;;;;39.57;15.83;;;7.10;99.90;;;;;;5268769;28;20264;-54
2022/12/23 08:37:31;;;;;;;77.87;22.50;;;7.20;99.90;;;;;;5268197;28;20235;-52
2022/12/23 08:40:03;;;;;;;36.70;14.20;;;7.10;99.90;;;;;;5262039;28;20725;-54
2022/12/23 08:42:33;;;;;;;51.83;15.13;;;7.10;99.90;;;;;;5259399;28;20189;-54
2022/12/23 08:45:04;;;;;;;65.10;16.50;;;7.10;99.90;;;;;;5264929;28;20989;-52
2022/12/23 08:47:35;;;;;;;46.07;15.03;;;7.10;99.90;;;;;;5271357;28;20209;-54
2022/12/23 08:50:06;;;;;;;43.80;14.90;;;7.00;99.90;;;;;;5267860;28;20407;-54
2022/12/23 08:52:37;;;;;;;53.20;17.50;;;7.00;99.90;;;;;;5266385;28;20181;-54
2022/12/23 08:55:08;;;;;;;80.80;19.13;;;7.00;99.90;;;;;;5266887;28;20427;-55
2022/12/23 08:57:38;;;;;;;37.13;14.27;;;7.00;99.90;;;;;;5263610;28;20202;-53
2022/12/23 09:00:10;;;;;;;45.70;16.43;;;7.00;99.90;;;;;;5265564;28;20542;-53
2022/12/23 09:02:40;;;;;;;58.50;16.50;;;7.00;99.90;;;;;;5267482;28;20176;-54
2022/12/23 09:05:11;;;;;;;67.60;18.10;;;7.00;99.90;;;;;;5266818;28;20492;-54
2022/12/23 09:07:42;;;;;;;49.57;15.17;;;7.10;99.90;;;;;;5254873;28;20510;-52
2022/12/23 09:10:13;;;;;;;46.37;14.00;;;7.10;99.90;;;;;;5266579;28;20201;-54
2022/12/23 09:12:44;;;;;;;34.80;13.83;;;7.20;99.90;;;;;;5265151;28;20269;-54
2022/12/23 09:15:15;;;;;;;47.50;15.40;;;7.20;99.90;;;;;;5263991;28;20561;-53
2022/12/23 09:17:45;;;;;;;32.33;12.97;;;7.20;99.90;;;;;;5265995;28;20508;-54
2022/12/23 09:20:16;;;;;;;39.03;13.43;;;7.20;99.90;;;;;;5267619;28;20415;-51
2022/12/23 09:22:47;;;;;;;39.77;14.10;;;7.10;99.90;;;;;;5245398;28;20193;-53
2022/12/23 09:25:17;;;;;;;40.47;12.80;;;7.20;99.90;;;;;;5254579;28;20181;-53
2022/12/23 09:27:48;;;;;;;56.13;14.27;;;7.20;99.90;;;;;;5257124;28;20293;-54
2022/12/23 09:30:19;;;;;;;45.03;15.10;;;7.20;99.90;;;;;;5267282;28;20199;-53
2022/12/23 09:32:50;;;;;;;32.33;12.47;;;7.20;99.90;;;;;;5265774;28;20173;-54
2022/12/23 09:35:21;;;;;;;42.30;14.67;;;7.30;99.90;;;;;;5261865;28;20174;-54
2022/12/23 09:37:51;;;;;;;37.37;12.13;;;7.30;99.90;;;;;;5265836;28;20480;-53
2022/12/23 09:40:22;;;;;;;50.07;13.23;;;7.20;99.90;;;;;;5260162;28;20436;-54
2022/12/23 09:43:08;;;;;;;42.77;14.37;;;7.20;99.90;;;;;;5266810;28;20184;-53
2022/12/23 09:46:07;;;;;;;35.10;12.60;;;7.20;99.90;;;;;;5265328;28;20182;-54
2022/12/23 09:48:44;;;;;;;37.43;14.03;;;7.30;99.90;;;;;;5263594;28;20820;-54
2022/12/23 09:51:20;;;;;;;46.67;15.00;;;7.30;99.90;;;;;;5266320;28;20451;-49
2022/12/23 09:53:51;;;;;;;41.43;14.93;;;7.30;99.90;;;;;;5273716;28;20437;-50
2022/12/23 09:56:38;;;;;;;61.50;17.27;;;7.10;99.90;;;;;;5270027;28;20411;-50
2022/12/23 09:59:25;;;;;;;25.83;10.80;;;7.10;99.90;;;;;;5268128;28;20272;-50
2022/12/23 10:02:05;;;;;;;47.70;14.33;;;7.10;99.90;;;;;;5271639;28;20958;-51
2022/12/23 10:04:47;;;;;;;42.33;12.43;;;7.20;99.90;;;;;;5269584;28;20428;-51
2022/12/23 10:07:34;;;;;;;33.10;12.23;;;7.20;99.90;;;;;;5270143;28;20473;-50
2022/12/23 10:10:19;;;;;;;31.60;12.63;;;7.30;99.90;;;;;;5271492;28;20947;-53
2022/12/23 10:12:52;;;;;;;43.50;16.17;;;7.20;99.90;;;;;;5261368;28;20912;-51
2022/12/23 10:15:32;;;;;;;25.97;11.50;;;7.20;99.90;;;;;;5271248;28;20428;-52
2022/12/23 10:18:43;;;;;;;31.77;11.40;;;7.20;99.90;;;;;;5268948;28;20520;-50
2022/12/23 10:21:23;;;;;;;34.67;11.00;;;7.30;99.90;;;;;;5265539;28;20446;-54
2022/12/23 10:23:54;;;;;;;30.23;12.43;;;7.30;99.90;;;;;;5268735;28;20415;-51
2022/12/23 10:26:33;;;;;;;27.53;12.00;;;7.40;99.90;;;;;;5266439;28;20434;-51
2022/12/23 10:29:09;;;;;;;29.17;12.17;;;7.40;99.90;;;;;;5270735;28;20848;-51
2022/12/23 10:31:46;;;;;;;30.70;12.27;;;7.40;99.90;;;;;;5267458;28;20431;-51
2022/12/23 10:34:29;;;;;;;31.33;12.43;;;7.50;99.90;;;;;;5270921;28;20443;-54
2022/12/23 10:37:03;;;;;;;26.33;11.70;;;7.50;99.90;;;;;;5270837;28;22232;-52
2022/12/23 10:39:50;;;;;;;44.73;16.63;;;7.60;99.90;;;;;;5270414;28;20465;-51
2022/12/23 10:42:51;;;;;;;24.27;11.83;;;7.60;99.90;;;;;;5269757;28;20443;-55
2022/12/23 10:45:30;;;;;;;31.43;13.80;;;7.60;99.90;;;;;;5272337;28;20442;-51
2022/12/23 10:48:31;;;;;;;31.13;13.37;;;7.60;99.90;;;;;;5268180;28;20583;-49
2022/12/23 10:51:29;;;;;;;36.97;15.00;;;7.70;99.90;;;;;;5269083;28;20450;-52
2022/12/23 10:54:15;;;;;;;37.70;14.90;;;7.70;99.90;;;;;;5263144;28;20431;-52
2022/12/23 10:56:46;;;;;;;28.07;12.50;;;7.70;99.90;;;;;;5264826;28;20787;-50
2022/12/23 10:59:23;;;;;;;30.53;13.07;;;7.80;99.90;;;;;;5263444;28;20920;-53
2022/12/23 11:02:20;;;;;;;27.47;11.10;;;7.90;99.90;;;;;;5268398;28;20487;-49
2022/12/23 11:04:51;;;;;;;26.97;13.13;;;7.90;99.90;;;;;;5266773;28;20439;-51
2022/12/23 11:07:26;;;;;;;32.20;14.80;;;8.00;99.90;;;;;;5261385;28;20495;-51
2022/12/23 11:10:02;;;;;;;22.33;11.27;;;7.90;99.90;;;;;;5270862;28;20177;-53
2022/12/23 11:12:40;;;;;;;22.33;10.73;;;7.80;99.90;;;;;;5270032;28;20432;-52
2022/12/23 11:15:31;;;;;;;22.13;11.23;;;7.90;99.90;;;;;;5267539;28;21095;-51
2022/12/23 11:18:11;;;;;;;24.70;11.87;;;7.70;99.90;;;;;;5266443;28;20555;-52
2022/12/23 11:20:44;;;;;;;22.37;11.47;;;7.60;99.90;;;;;;5265708;28;20506;-52
2022/12/23 11:23:34;;;;;;;19.63;10.43;;;7.60;99.90;;;;;;5270613;28;20486;-50
2022/12/23 11:26:26;;;;;;;17.40;9.07;;;7.50;99.90;;;;;;5261640;28;20439;-51
2022/12/23 11:29:08;;;;;;;26.80;10.73;;;7.60;99.90;;;;;;5261393;28;20486;-50
2022/12/23 11:31:42;;;;;;;23.23;11.73;;;7.60;99.90;;;;;;5265240;28;20435;-52
2022/12/23 11:34:17;;;;;;;22.57;10.60;;;7.60;99.90;;;;;;5265853;28;20431;-51
2022/12/23 11:36:57;;;;;;;19.70;10.03;;;7.60;99.90;;;;;;5270283;28;20466;-54
2022/12/23 11:39:33;;;;;;;19.17;11.70;;;7.50;99.90;;;;;;5260787;28;20439;-57
2022/12/23 11:42:18;;;;;;;27.43;12.57;;;7.50;99.90;;;;;;5267280;28;20442;-52
2022/12/23 11:44:52;;;;;;;16.63;10.80;;;7.50;99.90;;;;;;5270687;28;20440;-52
2022/12/23 11:47:22;;;;;;;15.33;10.80;;;7.60;99.90;;;;;;5282765;27;20550;-53
2022/12/23 11:49:56;;;;;;;19.70;11.20;;;7.60;99.90;;;;;;5267899;28;20606;-49
2022/12/23 11:52:28;;;;;;;17.13;10.60;;;7.60;99.90;;;;;;5259063;28;20186;-51
2022/12/23 11:55:02;;;;;;;18.93;11.10;;;7.60;99.90;;;;;;5251969;28;21120;-52
2022/12/23 11:57:41;;;;;;;25.63;11.77;;;7.50;99.90;;;;;;5246969;28;20945;-56
2022/12/23 12:00:26;;;;;;;30.50;14.60;;;7.60;99.90;;;;;;5245015;28;20452;-53
2022/12/23 12:03:00;;;;;;;26.73;14.40;;;7.60;99.90;;;;;;5262067;28;20438;-51
2022/12/23 12:05:39;;;;;;;24.00;13.67;;;7.70;99.90;;;;;;5260655;28;20497;-51
2022/12/23 12:08:13;;;;;;;36.43;16.27;;;7.60;99.90;;;;;;5262942;28;20528;-53
2022/12/23 12:10:44;;;;;;;19.73;12.50;;;7.70;99.90;;;;;;5270659;28;20430;-51
2022/12/23 12:13:38;;;;;;;25.13;13.73;;;7.70;99.90;;;;;;5268546;28;20434;-52
2022/12/23 12:16:24;;;;;;;31.90;14.80;;;7.70;99.90;;;;;;5262018;28;20494;-53
2022/12/23 12:18:58;;;;;;;28.40;14.87;;;7.70;99.90;;;;;;5269495;28;20965;-51
2022/12/23 12:21:35;;;;;;;25.57;14.67;;;7.70;99.90;;;;;;5266364;28;20440;-52
2022/12/23 12:24:20;;;;;;;33.13;16.70;;;7.70;99.90;;;;;;5267667;28;20434;-55
2022/12/23 12:26:56;;;;;;;36.40;15.63;;;7.90;99.90;;;;;;5265595;28;21003;-51
2022/12/23 12:29:47;;;;;;;30.77;14.90;;;7.90;99.90;;;;;;5268905;28;20493;-50
2022/12/23 12:32:28;;;;;;;24.20;13.27;;;8.00;99.90;;;;;;5267473;28;20515;-51
2022/12/23 12:35:06;;;;;;;25.63;14.43;;;8.00;99.90;;;;;;5262498;28;21153;-51
2022/12/23 12:37:56;;;;;;;25.00;13.43;;;8.00;99.90;;;;;;5269421;28;21121;-51
2022/12/23 12:40:37;;;;;;;24.40;12.70;;;8.10;99.90;;;;;;5260067;28;20560;-51
2022/12/23 12:43:29;;;;;;;19.03;12.60;;;8.20;99.90;;;;;;5278326;28;20481;-52
2022/12/23 12:46:28;;;;;;;22.37;12.53;;;8.20;99.90;;;;;;5264702;28;20458;-53
2022/12/23 12:49:11;;;;;;;22.60;12.73;;;8.20;99.90;;;;;;5259749;28;20514;-51
2022/12/23 12:51:41;;;;;;;24.33;13.67;;;8.10;99.90;;;;;;5263032;28;20439;-52
2022/12/23 12:54:27;;;;;;;23.40;12.70;;;8.10;99.90;;;;;;5266202;28;20446;-54
2022/12/23 12:56:58;;;;;;;23.23;12.63;;;8.10;99.90;;;;;;5269130;28;20190;-52
2022/12/23 12:59:34;;;;;;;22.70;12.43;;;8.30;99.90;;;;;;5265054;28;20455;-50
2022/12/23 13:02:43;;;;;;;32.77;15.50;;;8.40;99.90;;;;;;5269222;28;20438;-50
2022/12/23 13:05:49;;;;;;;21.03;12.03;;;8.60;99.90;;;;;;5275738;28;20492;-51
2022/12/23 13:08:31;;;;;;;56.10;29.47;;;8.60;99.90;;;;;;5267213;28;20470;-51
2022/12/23 13:11:14;;;;;;;23.43;15.33;;;8.60;99.90;;;;;;5269716;28;20443;-51
2022/12/23 13:14:32;;;;;;;20.80;11.80;;;8.50;99.90;;;;;;5261886;28;21053;-52
2022/12/23 13:17:21;;;;;;;16.23;10.30;;;8.30;99.90;;;;;;5267694;28;21005;-52
2022/12/23 13:20:14;;;;;;;15.53;10.60;;;8.30;99.90;;;;;;5267084;28;20444;-52
2022/12/23 13:22:52;;;;;;;16.87;11.30;;;8.10;99.90;;;;;;5265545;28;20427;-51
2022/12/23 13:25:41;;;;;;;17.43;11.13;;;8.00;99.90;;;;;;5261168;28;20439;-53
2022/12/23 13:28:43;;;;;;;15.40;9.63;;;8.00;99.90;;;;;;5253899;28;20786;-50
2022/12/23 13:31:47;;;;;;;20.90;11.10;;;7.90;99.90;;;;;;5264874;28;20438;-51
2022/12/23 13:34:21;;;;;;;17.40;11.67;;;7.80;99.90;;;;;;5265469;28;20426;-56
2022/12/23 13:36:59;;;;;;;20.87;11.90;;;7.80;99.90;;;;;;5267821;28;21276;-50
2022/12/23 13:39:41;;;;;;;14.83;9.80;;;7.70;99.90;;;;;;5260264;28;20940;-52
2022/12/23 13:42:38;;;;;;;16.10;11.30;;;7.50;99.90;;;;;;5267500;28;20422;-52
2022/12/23 13:45:18;;;;;;;17.10;11.10;;;7.60;99.90;;;;;;5269640;28;20432;-50